createdAt,value
2023-03-01T00:02:25.307Z,102697.88
2023-03-01T00:04:53.041Z,102699.00
2023-03-01T00:07:21.011Z,102698.59
2023-03-01T00:09:48.611Z,102694.53
2023-03-01T00:12:16.129Z,102697.47
2023-03-01T00:14:44.945Z,102688.09
2023-03-01T00:17:12.475Z,102681.53
2023-03-01T00:19:39.877Z,102680.56
2023-03-01T00:22:07.335Z,102676.53
2023-03-01T00:24:34.833Z,102677.66
2023-03-01T00:27:02.857Z,102677.78
2023-03-01T00:29:30.411Z,102668.84
2023-03-01T00:32:03.391Z,102677.13
2023-03-01T00:34:30.920Z,102680.16
2023-03-01T00:37:05.956Z,102682.69
2023-03-01T00:39:34.336Z,102685.34
2023-03-01T00:42:01.870Z,102690.13
2023-03-01T00:44:29.397Z,102679.09
2023-03-01T00:46:56.920Z,102689.31
2023-03-01T00:49:28.627Z,102684.81
2023-03-01T00:51:56.176Z,102682.59
2023-03-01T00:54:23.638Z,102684.81
2023-03-01T00:56:51.148Z,102682.88
2023-03-01T00:59:18.783Z,102687.63
2023-03-01T01:01:46.252Z,102682.19
2023-03-01T01:04:14.900Z,102695.75
2023-03-01T01:06:45.260Z,102690.31
2023-03-01T01:09:17.970Z,102692.28
2023-03-01T01:11:45.991Z,102670.63
2023-03-01T01:14:13.767Z,102679.13
2023-03-01T01:16:41.426Z,102672.56
2023-03-01T01:19:08.971Z,102671.31
2023-03-01T01:21:37.175Z,102663.06
2023-03-01T01:24:06.930Z,102661.97
2023-03-01T01:26:35.563Z,102663.34
2023-03-01T01:29:04.693Z,102660.41
2023-03-01T01:31:33.511Z,102665.31
2023-03-01T01:34:02.067Z,102664.47
2023-03-01T01:36:29.977Z,102658.88
2023-03-01T01:38:57.856Z,102655.66
2023-03-01T01:41:27.285Z,102651.63
2023-03-01T01:44:13.655Z,102645.91
2023-03-01T01:46:43.166Z,102639.06
2023-03-01T01:49:19.746Z,102644.22
2023-03-01T01:51:49.694Z,102635.00
2023-03-01T01:54:18.864Z,102639.91
2023-03-01T01:56:51.039Z,102626.75
2023-03-01T01:59:18.522Z,102619.53
2023-03-01T02:01:46.037Z,102618.81
2023-03-01T02:04:13.537Z,102630.44
2023-03-01T02:06:44.749Z,102628.59
2023-03-01T02:09:15.502Z,102634.63
2023-03-01T02:11:43.512Z,102630.72
2023-03-01T02:14:12.862Z,102631.13
2023-03-01T02:16:40.478Z,102628.72
2023-03-01T02:19:09.604Z,102626.38
2023-03-01T02:21:42.307Z,102618.97
2023-03-01T02:24:20.383Z,102617.59
2023-03-01T02:26:52.637Z,102608.53
2023-03-01T02:29:22.025Z,102612.97
2023-03-01T02:31:49.602Z,102610.47
2023-03-01T02:34:20.011Z,102614.53
2023-03-01T02:36:49.927Z,102618.16
2023-03-01T02:39:20.823Z,102606.56
2023-03-01T02:41:52.475Z,102603.91
2023-03-01T02:44:21.469Z,102608.91
2023-03-01T02:46:50.584Z,102608.66
2023-03-01T02:49:21.535Z,102605.56
2023-03-01T02:51:57.782Z,102607.97
2023-03-01T02:54:27.406Z,102597.91
2023-03-01T02:56:55.053Z,102599.75
2023-03-01T02:59:26.383Z,102597.06
2023-03-01T03:01:53.898Z,102599.31
2023-03-01T03:04:21.946Z,102595.81
2023-03-01T03:06:51.169Z,102588.59
2023-03-01T03:09:19.774Z,102591.22
2023-03-01T03:11:47.852Z,102594.72
2023-03-01T03:14:17.101Z,102588.28
2023-03-01T03:16:48.135Z,102587.88
2023-03-01T03:19:15.880Z,102585.63
2023-03-01T03:21:43.625Z,102577.81
2023-03-01T03:24:11.142Z,102575.44
2023-03-01T03:26:39.031Z,102579.22
2023-03-01T03:29:06.833Z,102575.31
2023-03-01T03:31:34.471Z,102579.91
2023-03-01T03:34:03.577Z,102576.00
2023-03-01T03:36:33.989Z,102570.16
2023-03-01T03:39:01.506Z,102568.63
2023-03-01T03:41:29.105Z,102571.13
2023-03-01T03:43:56.614Z,102571.00
2023-03-01T03:46:24.276Z,102577.41
2023-03-01T03:48:51.784Z,102578.09
2023-03-01T03:51:23.595Z,102563.03
2023-03-01T03:53:51.037Z,102561.50
2023-03-01T03:56:18.553Z,102568.06
2023-03-01T03:58:46.127Z,102564.84
2023-03-01T04:01:13.654Z,102556.47
2023-03-01T04:03:42.735Z,102558.16
2023-03-01T04:06:10.460Z,102554.66
2023-03-01T04:08:39.453Z,102551.72
2023-03-01T04:11:21.985Z,102557.03
2023-03-01T04:13:49.946Z,102555.47
2023-03-01T04:16:18.809Z,102547.53
2023-03-01T04:18:46.504Z,102546.72
2023-03-01T04:21:14.178Z,102557.03
2023-03-01T04:23:43.920Z,102548.53
2023-03-01T04:26:11.588Z,102561.78
2023-03-01T04:28:41.085Z,102555.38
2023-03-01T04:31:19.293Z,102559.28
2023-03-01T04:33:48.798Z,102554.69
2023-03-01T04:36:18.611Z,102549.38
2023-03-01T04:38:49.446Z,102556.22
2023-03-01T04:41:18.654Z,102552.44
2023-03-01T04:43:46.607Z,102543.09
2023-03-01T04:46:15.879Z,102551.44
2023-03-01T04:48:45.261Z,102549.22
2023-03-01T04:51:17.056Z,102561.91
2023-03-01T04:53:45.460Z,102557.16
2023-03-01T04:56:16.433Z,102550.31
2023-03-01T04:58:44.158Z,102559.63
2023-03-01T05:01:16.149Z,102554.34
2023-03-01T05:06:46.573Z,102547.53
2023-03-01T05:09:14.033Z,102560.94
2023-03-01T05:11:42.945Z,102560.53
2023-03-01T05:14:11.376Z,102558.16
2023-03-01T05:16:39.188Z,102561.78
2023-03-01T05:19:12.263Z,102560.00
2023-03-01T05:22:00.783Z,102552.84
2023-03-01T05:24:28.974Z,102546.72
2023-03-01T05:26:57.838Z,102549.94
2023-03-01T05:29:27.106Z,102547.41
2023-03-01T05:31:55.384Z,102548.25
2023-03-01T05:34:26.390Z,102550.63
2023-03-01T05:36:54.084Z,102546.28
2023-03-01T05:39:23.335Z,102548.25
2023-03-01T05:41:51.053Z,102551.31
2023-03-01T05:44:19.874Z,102543.81
2023-03-01T05:46:47.634Z,102549.06
2023-03-01T05:49:16.035Z,102549.03
2023-03-01T05:51:43.919Z,102548.06
2023-03-01T05:54:11.892Z,102549.63
2023-03-01T05:56:39.590Z,102542.53
2023-03-01T05:59:07.166Z,102537.06
2023-03-01T06:01:37.155Z,102536.66
2023-03-01T06:04:05.802Z,102545.03
2023-03-01T06:06:35.918Z,102548.34
2023-03-01T06:09:10.791Z,102542.63
2023-03-01T06:11:38.898Z,102546.13
2023-03-01T06:17:11.514Z,102549.16
2023-03-01T06:19:39.187Z,102543.47
2023-03-01T06:24:51.261Z,102536.34
2023-03-01T06:27:18.867Z,102538.03
2023-03-01T06:29:46.438Z,102537.47
2023-03-01T06:32:15.513Z,102535.41
2023-03-01T06:34:43.035Z,102529.66
2023-03-01T06:37:10.548Z,102537.47
2023-03-01T06:39:38.208Z,102534.94
2023-03-01T06:42:05.955Z,102528.53
2023-03-01T06:44:33.486Z,102530.81
2023-03-01T06:47:01.069Z,102532.34
2023-03-01T06:49:29.845Z,102528.16
2023-03-01T06:51:57.310Z,102535.53
2023-03-01T06:54:25.177Z,102536.25
2023-03-01T06:56:55.036Z,102541.00
2023-03-01T06:59:22.549Z,102539.47
2023-03-01T07:01:50.103Z,102548.53
2023-03-01T07:04:17.659Z,102546.00
2023-03-01T07:06:46.422Z,102544.75
2023-03-01T07:09:13.952Z,102530.13
2023-03-01T07:11:43.916Z,102532.88
2023-03-01T07:14:11.369Z,102540.97
2023-03-01T07:16:38.957Z,102533.03
2023-03-01T07:19:13.291Z,102533.84
2023-03-01T07:21:40.866Z,102534.84
2023-03-01T07:24:10.413Z,102538.06
2023-03-01T07:26:37.972Z,102532.75
2023-03-01T07:29:07.212Z,102533.06
2023-03-01T07:31:35.374Z,102542.69
2023-03-01T07:34:02.885Z,102534.28
2023-03-01T07:36:30.850Z,102538.91
2023-03-01T07:38:58.843Z,102531.38
2023-03-01T07:41:27.730Z,102538.91
2023-03-01T07:43:55.211Z,102532.78
2023-03-01T07:46:23.120Z,102525.53
2023-03-01T07:48:50.610Z,102520.78
2023-03-01T07:51:19.382Z,102521.59
2023-03-01T07:53:49.188Z,102527.75
2023-03-01T07:56:18.762Z,102517.84
2023-03-01T07:58:49.813Z,102524.81
2023-03-01T08:01:20.933Z,102528.31
2023-03-01T08:03:48.671Z,102518.53
2023-03-01T08:06:18.029Z,102526.63
2023-03-01T08:08:47.030Z,102517.28
2023-03-01T08:11:16.477Z,102529.28
2023-03-01T08:13:44.975Z,102527.19
2023-03-01T08:16:16.710Z,102526.34
2023-03-01T08:18:44.644Z,102519.94
2023-03-01T08:21:13.857Z,102529.00
2023-03-01T08:23:41.599Z,102531.09
2023-03-01T08:26:10.657Z,102520.91
2023-03-01T08:28:38.329Z,102523.41
2023-03-01T08:31:17.455Z,102527.59
2023-03-01T08:33:44.999Z,102540.53
2023-03-01T08:36:12.625Z,102530.06
2023-03-01T08:38:40.188Z,102538.88
2023-03-01T08:41:07.728Z,102537.22
2023-03-01T08:43:35.156Z,102533.84
2023-03-01T08:46:02.693Z,102535.38
2023-03-01T08:48:31.632Z,102533.44
2023-03-01T08:50:59.153Z,102533.72
2023-03-01T08:53:26.616Z,102533.13
2023-03-01T08:55:54.382Z,102529.38
2023-03-01T08:58:21.801Z,102528.66
2023-03-01T09:00:49.256Z,102527.53
2023-03-01T09:03:16.712Z,102522.22
2023-03-01T09:05:46.923Z,102520.56
2023-03-01T09:08:14.450Z,102514.84
2023-03-01T09:10:41.906Z,102513.41
2023-03-01T09:13:09.393Z,102517.03
2023-03-01T09:15:38.472Z,102517.44
2023-03-01T09:18:06.115Z,102503.25
2023-03-01T09:20:34.418Z,102519.69
2023-03-01T09:23:03.322Z,102524.72
2023-03-01T09:25:30.757Z,102529.31
2023-03-01T09:27:58.229Z,102524.50
2023-03-01T09:30:26.155Z,102519.56
2023-03-01T09:32:53.894Z,102522.59
2023-03-01T09:35:23.504Z,102520.41
2023-03-01T09:37:51.137Z,102517.09
2023-03-01T09:40:22.418Z,102523.38
2023-03-01T09:42:55.704Z,102529.03
2023-03-01T09:45:29.725Z,102526.47
2023-03-01T09:47:57.688Z,102526.47
2023-03-01T09:50:25.255Z,102525.94
2023-03-01T09:52:56.972Z,102528.16
2023-03-01T09:55:29.124Z,102526.72
2023-03-01T09:57:58.955Z,102530.38
2023-03-01T10:00:32.787Z,102536.31
2023-03-01T10:03:05.468Z,102541.44
2023-03-01T10:05:43.864Z,102530.69
2023-03-01T10:08:31.984Z,102538.28
2023-03-01T10:11:01.011Z,102529.56
2023-03-01T10:13:33.530Z,102526.84
2023-03-01T10:16:04.187Z,102525.22
2023-03-01T10:18:33.611Z,102528.78
2023-03-01T10:21:02.544Z,102520.13
2023-03-01T10:23:32.752Z,102524.16
2023-03-01T10:26:12.799Z,102522.03
2023-03-01T10:28:47.061Z,102510.38
2023-03-01T10:31:15.949Z,102509.00
2023-03-01T10:33:43.551Z,102508.41
2023-03-01T10:36:11.140Z,102503.47
2023-03-01T10:38:54.874Z,102504.03
2023-03-01T10:41:25.313Z,102499.28
2023-03-01T10:43:54.604Z,102495.47
2023-03-01T10:46:29.872Z,102499.31
2023-03-01T10:49:15.713Z,102498.53
2023-03-01T10:51:44.845Z,102501.41
2023-03-01T10:54:19.202Z,102498.97
2023-03-01T10:56:53.696Z,102500.13
2023-03-01T10:59:28.679Z,102495.94
2023-03-01T11:02:26.195Z,102496.50
2023-03-01T11:04:59.054Z,102495.00
2023-03-01T11:07:26.590Z,102495.53
2023-03-01T11:09:54.140Z,102491.56
2023-03-01T11:12:23.670Z,102498.13
2023-03-01T11:14:52.664Z,102500.47
2023-03-01T11:17:24.330Z,102494.53
2023-03-01T11:20:08.901Z,102492.22
2023-03-01T11:22:38.071Z,102485.31
2023-03-01T11:25:10.283Z,102479.78
2023-03-01T11:27:43.233Z,102478.31
2023-03-01T11:30:18.590Z,102477.56
2023-03-01T11:32:49.837Z,102474.06
2023-03-01T11:35:20.263Z,102478.38
2023-03-01T11:37:59.443Z,102475.41
2023-03-01T11:40:29.765Z,102468.25
2023-03-01T11:43:07.387Z,102465.25
2023-03-01T11:45:43.747Z,102461.41
2023-03-01T11:48:49.522Z,102456.75
2023-03-01T11:51:22.923Z,102458.09
2023-03-01T11:54:01.712Z,102461.09
2023-03-01T11:56:35.028Z,102455.25
2023-03-01T11:59:28.175Z,102449.41
2023-03-01T12:02:09.652Z,102441.91
2023-03-01T12:04:56.366Z,102445.59
2023-03-01T12:07:29.156Z,102452.06
2023-03-01T12:10:11.627Z,102444.22
2023-03-01T12:12:54.176Z,102437.88
2023-03-01T12:15:34.596Z,102427.19
2023-03-01T12:18:15.705Z,102431.03
2023-03-01T12:20:46.549Z,102428.50
2023-03-01T12:23:26.726Z,102421.03
2023-03-01T12:25:59.556Z,102417.56
2023-03-01T12:28:38.438Z,102418.38
2023-03-01T12:31:44.249Z,102410.16
2023-03-01T12:34:23.254Z,102416.03
2023-03-01T12:37:00.323Z,102409.19
2023-03-01T12:39:42.136Z,102400.28
2023-03-01T12:42:17.619Z,102394.94
2023-03-01T12:44:57.439Z,102392.47
2023-03-01T12:47:40.400Z,102383.59
2023-03-01T12:50:14.009Z,102390.03
2023-03-01T12:52:44.330Z,102382.72
2023-03-01T12:55:23.532Z,102389.03
2023-03-01T12:57:58.468Z,102385.50
2023-03-01T13:00:30.896Z,102378.50
2023-03-01T13:03:02.902Z,102373.31
2023-03-01T13:05:39.426Z,102373.94
2023-03-01T13:08:11.498Z,102364.53
2023-03-01T13:10:45.200Z,102367.72
2023-03-01T13:13:16.042Z,102370.00
2023-03-01T13:15:43.664Z,102364.19
2023-03-01T13:18:33.214Z,102354.22
2023-03-01T13:21:03.104Z,102356.56
2023-03-01T13:23:33.812Z,102358.31
2023-03-01T13:26:12.219Z,102357.84
2023-03-01T13:28:51.034Z,102357.88
2023-03-01T13:32:05.561Z,102360.31
2023-03-01T13:34:52.409Z,102353.13
2023-03-01T13:37:30.217Z,102354.09
2023-03-01T13:39:59.763Z,102348.63
2023-03-01T13:42:39.323Z,102349.53
2023-03-01T13:45:20.192Z,102345.41
2023-03-01T13:47:49.904Z,102349.72
2023-03-01T13:50:23.202Z,102338.84
2023-03-01T13:52:53.131Z,102338.59
2023-03-01T13:55:23.384Z,102337.66
2023-03-01T13:57:54.598Z,102337.66
2023-03-01T14:00:34.288Z,102333.59
2023-03-01T14:03:07.017Z,102339.25
2023-03-01T14:05:37.765Z,102340.09
2023-03-01T14:08:05.463Z,102328.19
2023-03-01T14:10:37.536Z,102336.75
2023-03-01T14:13:19.895Z,102336.84
2023-03-01T14:15:52.581Z,102325.94
2023-03-01T14:18:23.109Z,102318.22
2023-03-01T14:20:53.654Z,102321.13
2023-03-01T14:23:23.686Z,102313.00
2023-03-01T14:25:53.313Z,102312.03
2023-03-01T14:28:22.854Z,102302.97
2023-03-01T14:30:52.126Z,102296.91
2023-03-01T14:33:25.723Z,102299.88
2023-03-01T14:36:00.037Z,102293.09
2023-03-01T14:38:33.981Z,102281.44
2023-03-01T14:41:05.655Z,102276.72
2023-03-01T14:43:34.698Z,102278.38
2023-03-01T14:46:02.383Z,102274.97
2023-03-01T14:48:30.774Z,102273.19
2023-03-01T14:51:01.065Z,102271.91
2023-03-01T14:53:32.686Z,102278.38
2023-03-01T14:56:04.199Z,102275.97
2023-03-01T14:58:35.075Z,102280.13
2023-03-01T15:01:04.463Z,102275.72
2023-03-01T15:03:35.360Z,102272.47
2023-03-01T15:06:06.117Z,102263.44
2023-03-01T15:08:34.833Z,102263.88
2023-03-01T15:11:07.999Z,102267.34
2023-03-01T15:13:37.592Z,102265.34
2023-03-01T15:16:08.608Z,102261.31
2023-03-01T15:18:36.425Z,102252.56
2023-03-01T15:21:11.566Z,102255.78
2023-03-01T15:23:39.892Z,102248.34
2023-03-01T15:26:07.358Z,102239.81
2023-03-01T15:28:36.702Z,102245.72
2023-03-01T15:31:06.555Z,102244.47
2023-03-01T15:33:38.669Z,102249.16
2023-03-01T15:36:33.845Z,102240.94
2023-03-01T15:39:02.320Z,102244.25
2023-03-01T15:41:32.876Z,102237.13
2023-03-01T15:44:01.034Z,102236.22
2023-03-01T15:46:31.543Z,102231.91
2023-03-01T15:49:00.903Z,102236.25
2023-03-01T15:51:36.133Z,102232.00
2023-03-01T15:54:07.093Z,102236.88
2023-03-01T15:56:35.434Z,102240.66
2023-03-01T15:59:04.372Z,102231.44
2023-03-01T16:01:33.213Z,102237.63
2023-03-01T16:04:01.365Z,102234.41
2023-03-01T16:06:29.471Z,102235.25
2023-03-01T16:08:58.628Z,102227.75
2023-03-01T16:11:26.142Z,102240.38
2023-03-01T16:13:53.656Z,102236.16
2023-03-01T16:16:22.190Z,102228.03
2023-03-01T16:18:50.064Z,102226.56
2023-03-01T16:21:21.767Z,102227.47
2023-03-01T16:23:49.835Z,102226.16
2023-03-01T16:26:21.401Z,102216.56
2023-03-01T16:28:49.270Z,102216.03
2023-03-01T16:31:20.557Z,102221.84
2023-03-01T16:33:51.021Z,102225.19
2023-03-01T16:36:20.008Z,102224.59
2023-03-01T16:38:49.264Z,102234.00
2023-03-01T16:41:20.404Z,102233.09
2023-03-01T16:43:48.666Z,102235.66
2023-03-01T16:46:18.317Z,102231.84
2023-03-01T16:48:46.201Z,102231.84
2023-03-01T16:51:14.119Z,102234.91
2023-03-01T16:53:41.904Z,102236.09
2023-03-01T16:56:11.727Z,102227.41
2023-03-01T16:58:41.356Z,102227.97
2023-03-01T17:01:10.301Z,102225.41
2023-03-01T17:03:41.343Z,102226.41
2023-03-01T17:06:11.411Z,102226.66
2023-03-01T17:08:39.277Z,102227.50
2023-03-01T17:13:47.971Z,102221.94
2023-03-01T17:16:17.999Z,102234.56
2023-03-01T17:18:45.523Z,102235.28
2023-03-01T17:21:13.647Z,102220.78
2023-03-01T17:23:42.611Z,102232.16
2023-03-01T17:26:10.122Z,102228.34
2023-03-01T17:28:38.508Z,102235.72
2023-03-01T17:31:08.330Z,102231.56
2023-03-01T17:33:36.101Z,102235.34
2023-03-01T17:36:04.172Z,102236.59
2023-03-01T17:38:31.695Z,102239.97
2023-03-01T17:41:00.390Z,102245.31
2023-03-01T17:43:28.422Z,102246.19
2023-03-01T17:45:56.023Z,102252.72
2023-03-01T17:48:25.760Z,102250.59
2023-03-01T17:50:53.230Z,102248.94
2023-03-01T17:53:20.851Z,102259.91
2023-03-01T17:55:49.737Z,102262.63
2023-03-01T17:58:22.626Z,102264.34
2023-03-01T18:00:50.696Z,102265.13
2023-03-01T18:03:18.279Z,102266.94
2023-03-01T18:05:47.077Z,102267.47
2023-03-01T18:08:14.676Z,102266.34
2023-03-01T18:10:42.248Z,102272.25
2023-03-01T18:13:14.962Z,102273.97
2023-03-01T18:15:42.651Z,102277.06
2023-03-01T18:18:10.198Z,102288.00
2023-03-01T18:20:37.673Z,102282.19
2023-03-01T18:23:06.676Z,102274.47
2023-03-01T18:25:34.142Z,102271.41
2023-03-01T18:28:02.350Z,102269.47
2023-03-01T18:30:29.930Z,102277.50
2023-03-01T18:32:57.523Z,102276.19
2023-03-01T18:35:25.125Z,102277.50
2023-03-01T18:37:52.769Z,102268.81
2023-03-01T18:40:21.688Z,102280.06
2023-03-01T18:42:49.184Z,102271.97
2023-03-01T18:45:17.948Z,102277.00
2023-03-01T18:47:45.508Z,102280.28
2023-03-01T18:50:13.071Z,102284.31
2023-03-01T18:52:40.622Z,102280.28
2023-03-01T18:55:09.201Z,102273.00
2023-03-01T18:57:38.052Z,102276.97
2023-03-01T19:00:06.511Z,102286.78
2023-03-01T19:02:33.991Z,102281.72
2023-03-01T19:05:01.631Z,102289.19
2023-03-01T19:07:29.123Z,102279.13
2023-03-01T19:09:56.634Z,102275.44
2023-03-01T19:12:24.294Z,102279.97
2023-03-01T19:14:53.041Z,102276.63
2023-03-01T19:17:22.608Z,102286.94
2023-03-01T19:19:51.061Z,102286.94
2023-03-01T19:22:18.472Z,102287.28
2023-03-01T19:24:46.065Z,102283.84
2023-03-01T19:27:13.594Z,102288.19
2023-03-01T19:29:41.123Z,102292.72
2023-03-01T19:32:10.014Z,102289.94
2023-03-01T19:34:40.121Z,102293.59
2023-03-01T19:37:09.575Z,102293.63
2023-03-01T19:39:37.164Z,102299.28
2023-03-01T19:42:04.924Z,102301.25
2023-03-01T19:44:32.520Z,102305.56
2023-03-01T19:47:00.029Z,102296.63
2023-03-01T19:49:29.867Z,102297.63
2023-03-01T19:51:57.317Z,102302.63
2023-03-01T19:54:24.897Z,102296.31
2023-03-01T19:56:52.888Z,102285.31
2023-03-01T19:59:24.245Z,102302.63
2023-03-01T20:01:52.066Z,102294.97
2023-03-01T20:04:20.977Z,102304.13
2023-03-01T20:06:50.330Z,102303.78
2023-03-01T20:09:21.793Z,102303.94
2023-03-01T20:11:50.009Z,102301.31
2023-03-01T20:14:17.585Z,102301.31
2023-03-01T20:16:45.035Z,102295.63
2023-03-01T20:19:12.474Z,102294.00
2023-03-01T20:21:39.871Z,102305.66
2023-03-01T20:24:09.263Z,102308.59
2023-03-01T20:26:37.330Z,102304.44
2023-03-01T20:29:04.738Z,102298.97
2023-03-01T20:31:32.281Z,102303.41
2023-03-01T20:34:00.631Z,102308.56
2023-03-01T20:36:28.848Z,102307.59
2023-03-01T20:38:56.711Z,102320.81
2023-03-01T20:41:26.811Z,102319.94
2023-03-01T20:43:59.294Z,102319.28
2023-03-01T20:46:30.064Z,102315.72
2023-03-01T20:48:57.717Z,102321.53
2023-03-01T20:51:25.406Z,102321.59
2023-03-01T20:53:53.648Z,102326.53
2023-03-01T20:56:22.284Z,102321.41
2023-03-01T20:58:51.098Z,102324.72
2023-03-01T21:01:20.882Z,102324.97
2023-03-01T21:03:48.753Z,102331.63
2023-03-01T21:06:16.370Z,102331.28
2023-03-01T21:08:44.114Z,102337.25
2023-03-01T21:11:11.705Z,102335.94
2023-03-01T21:13:39.376Z,102330.78
2023-03-01T21:16:13.233Z,102331.13
2023-03-01T21:18:41.331Z,102331.75
2023-03-01T21:21:10.639Z,102322.47
2023-03-01T21:23:39.982Z,102324.78
2023-03-01T21:26:08.841Z,102331.94
2023-03-01T21:28:37.652Z,102327.16
2023-03-01T21:31:08.487Z,102329.75
2023-03-01T21:33:36.495Z,102336.25
2023-03-01T21:36:06.080Z,102325.41
2023-03-01T21:38:35.576Z,102329.97
2023-03-01T21:41:07.263Z,102325.06
2023-03-01T21:43:35.049Z,102323.59
2023-03-01T21:46:03.802Z,102315.78
2023-03-01T21:48:32.967Z,102305.16
2023-03-01T21:51:05.188Z,102308.66
2023-03-01T21:53:34.370Z,102307.97
2023-03-01T21:56:07.009Z,102303.81
2023-03-01T21:58:35.620Z,102305.31
2023-03-01T22:28:23.712Z,102305.75
2023-03-01T22:30:51.281Z,102304.47
2023-03-01T22:33:18.803Z,102304.28
2023-03-01T22:35:46.730Z,102308.59
2023-03-01T22:38:14.453Z,102304.25
2023-03-01T22:40:42.232Z,102297.91
2023-03-01T22:43:11.087Z,102300.75
2023-03-01T22:45:38.724Z,102301.56
2023-03-01T22:48:07.565Z,102305.56
2023-03-01T22:50:35.032Z,102312.84
2023-03-01T22:53:03.180Z,102306.34
2023-03-01T22:55:30.946Z,102300.44
2023-03-01T22:57:58.357Z,102309.06
2023-03-01T23:00:27.673Z,102298.88
2023-03-01T23:02:55.380Z,102311.59
2023-03-01T23:05:23.020Z,102298.97
2023-03-01T23:07:50.782Z,102311.06
2023-03-01T23:10:18.462Z,102311.47
2023-03-01T23:12:46.085Z,102314.69
2023-03-01T23:15:14.033Z,102308.06
2023-03-01T23:17:42.931Z,102307.22
2023-03-01T23:20:14.329Z,102305.91
2023-03-01T23:22:42.336Z,102304.22
2023-03-01T23:25:12.383Z,102302.91
2023-03-01T23:27:40.157Z,102299.28
2023-03-01T23:30:09.343Z,102304.06
2023-03-01T23:32:40.436Z,102301.41
2023-03-01T23:35:10.638Z,102316.38
2023-03-01T23:37:38.620Z,102318.44
2023-03-01T23:40:07.026Z,102309.28
2023-03-01T23:42:34.713Z,102316.44
2023-03-01T23:45:02.193Z,102307.84
2023-03-01T23:47:29.744Z,102300.31
2023-03-01T23:49:57.422Z,102298.59
2023-03-01T23:52:26.416Z,102303.13
2023-03-01T23:54:53.976Z,102303.84
2023-03-01T23:57:21.526Z,102301.78
2023-03-01T23:59:50.615Z,102294.09
